createdAt,value
2022-12-04T00:00:52.530Z,64.91
2022-12-04T00:03:18.870Z,64.65
2022-12-04T00:05:45.201Z,64.36
2022-12-04T00:08:11.510Z,64.40
2022-12-04T00:10:37.796Z,64.05
2022-12-04T00:13:04.050Z,64.78
2022-12-04T00:15:30.290Z,64.65
2022-12-04T00:17:56.551Z,64.64
2022-12-04T00:20:22.818Z,64.62
2022-12-04T00:22:49.074Z,64.78
2022-12-04T00:25:15.348Z,64.95
2022-12-04T00:27:41.608Z,64.92
2022-12-04T00:30:07.867Z,65.13
2022-12-04T00:32:34.153Z,65.27
2022-12-04T00:35:00.458Z,65.62
2022-12-04T00:37:26.728Z,65.10
2022-12-04T00:39:53.306Z,65.00
2022-12-04T00:42:19.729Z,64.91
2022-12-04T00:44:46.001Z,65.06
2022-12-04T00:47:12.265Z,64.98
2022-12-04T00:49:38.542Z,64.90
2022-12-04T00:52:04.814Z,65.27
2022-12-04T00:54:31.091Z,65.54
2022-12-04T00:56:57.346Z,65.38
2022-12-04T00:59:23.601Z,64.80
2022-12-04T01:01:49.901Z,64.79
2022-12-04T01:04:16.144Z,64.75
2022-12-04T01:06:42.399Z,64.48
2022-12-04T01:09:08.661Z,64.55
2022-12-04T01:11:34.910Z,64.76
2022-12-04T01:14:01.190Z,65.54
2022-12-04T01:16:27.505Z,65.32
2022-12-04T01:18:53.809Z,64.95
2022-12-04T01:21:20.076Z,65.33
2022-12-04T01:23:46.337Z,65.04
2022-12-04T01:26:12.605Z,65.09
2022-12-04T01:28:38.847Z,65.37
2022-12-04T01:31:05.091Z,65.47
2022-12-04T01:33:31.374Z,65.40
2022-12-04T01:35:57.625Z,65.57
2022-12-04T01:38:23.889Z,65.56
2022-12-04T01:40:50.185Z,65.17
2022-12-04T01:43:16.454Z,65.24
2022-12-04T01:45:42.773Z,65.65
2022-12-04T01:48:09.060Z,65.15
2022-12-04T01:50:35.337Z,65.00
2022-12-04T01:53:01.587Z,65.16
2022-12-04T01:55:27.828Z,64.97
2022-12-04T01:57:54.091Z,65.13
2022-12-04T02:00:20.334Z,65.13
2022-12-04T02:02:46.722Z,65.22
2022-12-04T02:05:13.022Z,64.86
2022-12-04T02:07:39.337Z,65.17
2022-12-04T02:10:05.616Z,65.38
2022-12-04T02:12:31.974Z,65.37
2022-12-04T02:14:58.231Z,64.49
2022-12-04T02:17:24.477Z,64.54
2022-12-04T02:19:50.737Z,64.76
2022-12-04T02:22:17.025Z,65.04
2022-12-04T02:24:49.672Z,64.77
2022-12-04T02:27:16.350Z,64.54
2022-12-04T02:29:42.623Z,64.83
2022-12-04T02:32:08.864Z,65.20
2022-12-04T02:34:35.115Z,65.04
2022-12-04T02:37:01.366Z,65.00
2022-12-04T02:39:27.608Z,65.14
2022-12-04T02:41:53.871Z,65.48
2022-12-04T02:44:20.128Z,65.28
2022-12-04T02:46:46.393Z,65.28
2022-12-04T02:49:12.642Z,65.19
2022-12-04T02:51:38.927Z,65.16
2022-12-04T02:54:05.169Z,65.34
2022-12-04T02:56:31.434Z,65.01
2022-12-04T02:58:57.705Z,65.21
2022-12-04T03:01:24.152Z,65.19
2022-12-04T03:03:50.510Z,65.34
2022-12-04T03:06:16.792Z,64.72
2022-12-04T03:08:43.036Z,64.77
2022-12-04T03:11:09.430Z,65.01
2022-12-04T03:13:35.674Z,65.26
2022-12-04T03:16:01.980Z,65.56
2022-12-04T03:18:28.243Z,64.95
2022-12-04T03:20:54.482Z,64.90
2022-12-04T03:23:20.768Z,64.79
2022-12-04T03:25:47.007Z,65.06
2022-12-04T03:28:13.277Z,65.04
2022-12-04T03:30:39.591Z,65.02
2022-12-04T03:33:05.910Z,65.03
2022-12-04T03:35:32.171Z,65.43
2022-12-04T03:37:58.421Z,65.03
2022-12-04T03:40:24.661Z,65.36
2022-12-04T03:42:50.905Z,65.37
2022-12-04T03:45:17.147Z,65.18
2022-12-04T03:47:43.477Z,64.84
2022-12-04T03:50:09.732Z,64.93
2022-12-04T03:52:35.981Z,65.41
2022-12-04T03:55:02.232Z,64.97
2022-12-04T03:57:28.494Z,64.95
2022-12-04T03:59:56.069Z,65.21
2022-12-04T04:02:22.536Z,64.98
2022-12-04T04:04:48.838Z,65.39
2022-12-04T04:07:15.128Z,65.16
2022-12-04T04:09:41.418Z,64.84
2022-12-04T04:12:07.668Z,65.36
2022-12-04T04:14:33.949Z,65.07
2022-12-04T04:17:00.209Z,65.09
2022-12-04T04:19:26.450Z,65.13
2022-12-04T04:21:52.716Z,65.36
2022-12-04T04:24:18.985Z,65.04
2022-12-04T04:26:45.272Z,65.22
2022-12-04T04:29:11.529Z,64.78
2022-12-04T04:31:37.855Z,65.22
2022-12-04T04:34:04.180Z,65.01
2022-12-04T04:36:30.463Z,64.83
2022-12-04T04:38:56.741Z,65.29
2022-12-04T04:41:23.005Z,65.33
2022-12-04T04:43:49.266Z,65.31
2022-12-04T04:46:15.595Z,65.57
2022-12-04T04:48:41.934Z,65.31
2022-12-04T04:51:08.206Z,65.25
2022-12-04T04:53:34.462Z,65.48
2022-12-04T04:56:00.714Z,65.65
2022-12-04T04:58:26.956Z,65.21
2022-12-04T05:00:53.208Z,64.84
2022-12-04T05:03:19.526Z,65.02
2022-12-04T05:05:45.876Z,65.07
2022-12-04T05:08:12.191Z,65.29
2022-12-04T05:10:38.533Z,65.45
2022-12-04T05:13:04.797Z,65.35
2022-12-04T05:15:31.138Z,65.53
2022-12-04T05:17:57.420Z,65.09
2022-12-04T05:20:23.662Z,65.37
2022-12-04T05:22:49.949Z,65.43
2022-12-04T05:25:16.217Z,64.95
2022-12-04T05:27:42.507Z,65.04
2022-12-04T05:30:08.758Z,65.07
2022-12-04T05:32:35.017Z,65.13
2022-12-04T05:35:04.010Z,65.39
2022-12-04T05:37:34.027Z,65.33
2022-12-04T05:40:00.295Z,65.09
2022-12-04T05:42:26.558Z,64.90
2022-12-04T05:44:52.850Z,65.12
2022-12-04T05:47:19.116Z,65.21
2022-12-04T05:49:45.382Z,65.38
2022-12-04T05:52:11.665Z,65.40
2022-12-04T05:54:37.917Z,65.51
2022-12-04T05:57:04.206Z,65.57
2022-12-04T05:59:30.460Z,65.64
2022-12-04T06:01:56.736Z,65.63
2022-12-04T06:04:23.077Z,65.72
2022-12-04T06:06:49.316Z,65.67
2022-12-04T06:09:15.619Z,65.24
2022-12-04T06:11:41.869Z,65.36
2022-12-04T06:14:08.148Z,65.11
2022-12-04T06:16:34.492Z,64.86
2022-12-04T06:19:00.774Z,65.21
2022-12-04T06:21:27.032Z,65.56
2022-12-04T06:23:53.302Z,65.75
2022-12-04T06:26:19.565Z,65.81
2022-12-04T06:28:45.812Z,65.88
2022-12-04T06:31:12.111Z,66.19
2022-12-04T06:33:38.418Z,66.10
2022-12-04T06:36:04.675Z,66.00
2022-12-04T06:38:30.943Z,65.97
2022-12-04T06:40:57.200Z,65.63
2022-12-04T06:43:23.481Z,65.80
2022-12-04T06:45:49.762Z,65.60
2022-12-04T06:48:16.067Z,65.83
2022-12-04T06:50:42.328Z,65.69
2022-12-04T06:53:08.822Z,65.99
2022-12-04T06:55:35.106Z,65.75
2022-12-04T06:58:01.366Z,65.90
2022-12-04T07:00:27.604Z,65.52
2022-12-04T07:02:53.948Z,65.32
2022-12-04T07:05:20.269Z,65.78
2022-12-04T07:07:46.583Z,65.43
2022-12-04T07:10:12.847Z,65.69
2022-12-04T07:12:39.131Z,65.68
2022-12-04T07:15:05.397Z,65.60
2022-12-04T07:17:31.638Z,65.01
2022-12-04T07:19:58.304Z,65.45
2022-12-04T07:22:24.670Z,65.49
2022-12-04T07:24:50.934Z,65.49
2022-12-04T07:27:17.203Z,65.80
2022-12-04T07:29:44.510Z,65.39
2022-12-04T07:32:10.855Z,65.63
2022-12-04T07:34:37.158Z,65.52
2022-12-04T07:37:03.434Z,65.87
2022-12-04T07:39:29.683Z,65.81
2022-12-04T07:41:55.947Z,66.15
2022-12-04T07:44:22.219Z,65.81
2022-12-04T07:46:48.470Z,65.71
2022-12-04T07:49:14.736Z,65.95
2022-12-04T07:51:41.020Z,66.23
2022-12-04T07:54:07.263Z,66.04
2022-12-04T07:56:33.639Z,65.98
2022-12-04T07:59:00.022Z,65.92
2022-12-04T08:01:26.371Z,66.12
2022-12-04T08:03:52.686Z,66.25
2022-12-04T08:06:18.935Z,66.93
2022-12-04T08:08:45.183Z,65.58
2022-12-04T08:11:11.462Z,65.65
2022-12-04T08:13:37.727Z,65.82
2022-12-04T08:16:04.003Z,65.98
2022-12-04T08:18:30.251Z,66.00
2022-12-04T08:20:56.507Z,65.68
2022-12-04T08:23:22.769Z,65.89
2022-12-04T08:25:49.033Z,65.72
2022-12-04T08:28:15.294Z,65.53
2022-12-04T08:30:41.600Z,65.58
2022-12-04T08:33:07.928Z,65.78
2022-12-04T08:35:34.206Z,65.78
2022-12-04T08:38:00.483Z,66.09
2022-12-04T08:40:26.754Z,66.15
2022-12-04T08:42:53.018Z,65.99
2022-12-04T08:45:19.285Z,65.88
2022-12-04T08:47:50.656Z,66.13
2022-12-04T08:50:18.594Z,65.72
2022-12-04T08:52:44.866Z,65.54
2022-12-04T08:55:11.138Z,65.98
2022-12-04T08:57:37.414Z,65.61
2022-12-04T09:00:03.659Z,66.11
2022-12-04T09:02:29.931Z,65.93
2022-12-04T09:04:56.225Z,65.81
2022-12-04T09:07:22.532Z,65.95
2022-12-04T09:09:48.800Z,65.64
2022-12-04T09:12:15.051Z,65.68
2022-12-04T09:14:41.310Z,66.00
2022-12-04T09:17:07.585Z,65.84
2022-12-04T09:19:33.842Z,65.59
2022-12-04T09:22:00.109Z,65.80
2022-12-04T09:24:26.358Z,66.06
2022-12-04T09:26:52.605Z,66.04
2022-12-04T09:29:18.950Z,65.71
2022-12-04T09:31:45.288Z,65.92
2022-12-04T09:34:11.574Z,65.69
2022-12-04T09:36:37.829Z,65.42
2022-12-04T09:39:04.076Z,65.25
2022-12-04T09:41:30.350Z,65.48
2022-12-04T09:43:56.613Z,65.11
2022-12-04T09:46:22.936Z,65.21
2022-12-04T09:48:49.207Z,65.24
2022-12-04T09:51:15.468Z,65.61
2022-12-04T09:53:41.729Z,65.18
2022-12-04T09:56:07.976Z,65.53
2022-12-04T09:58:34.254Z,65.12
2022-12-04T10:01:00.503Z,65.18
2022-12-04T10:03:26.908Z,65.34
2022-12-04T10:05:53.305Z,65.26
2022-12-04T10:08:19.695Z,65.08
2022-12-04T10:10:46.068Z,65.00
2022-12-04T10:13:12.314Z,65.22
2022-12-04T10:15:38.721Z,65.21
2022-12-04T10:18:04.999Z,65.25
2022-12-04T10:20:31.374Z,64.51
2022-12-04T10:22:57.668Z,64.82
2022-12-04T10:25:23.910Z,64.98
2022-12-04T10:27:50.169Z,64.53
2022-12-04T10:30:16.433Z,64.42
2022-12-04T10:32:42.707Z,64.43
2022-12-04T10:35:08.970Z,64.77
2022-12-04T10:37:35.218Z,64.67
2022-12-04T10:40:01.469Z,64.56
2022-12-04T10:42:27.761Z,64.45
2022-12-04T10:44:54.022Z,63.93
2022-12-04T10:47:20.271Z,64.51
2022-12-04T10:49:46.634Z,64.44
2022-12-04T10:52:12.873Z,65.23
2022-12-04T10:54:39.134Z,64.96
2022-12-04T10:57:05.400Z,64.17
2022-12-04T10:59:31.678Z,64.54
2022-12-04T11:02:02.995Z,64.68
2022-12-04T11:04:32.446Z,64.83
2022-12-04T11:06:58.690Z,64.94
2022-12-04T11:09:24.949Z,65.39
2022-12-04T11:11:51.199Z,63.92
2022-12-04T11:14:17.456Z,63.99
2022-12-04T11:16:43.746Z,64.11
2022-12-04T11:19:10.042Z,64.06
2022-12-04T11:21:36.299Z,64.40
2022-12-04T11:24:02.540Z,64.69
2022-12-04T11:26:28.796Z,64.55
2022-12-04T11:28:55.048Z,64.59
2022-12-04T11:31:21.378Z,64.14
2022-12-04T11:33:47.687Z,64.37
2022-12-04T11:36:13.945Z,64.06
2022-12-04T11:38:40.191Z,64.04
2022-12-04T11:41:06.429Z,64.05
2022-12-04T11:43:32.687Z,64.22
2022-12-04T11:45:58.945Z,64.37
2022-12-04T11:48:25.190Z,63.78
2022-12-04T11:50:51.441Z,63.27
2022-12-04T11:53:17.708Z,63.38
2022-12-04T11:55:43.985Z,63.70
2022-12-04T11:58:10.259Z,62.82
2022-12-04T12:00:36.507Z,63.09
2022-12-04T12:03:02.827Z,63.45
2022-12-04T12:05:29.219Z,63.24
2022-12-04T12:08:02.081Z,63.40
2022-12-04T12:10:28.974Z,64.01
2022-12-04T12:12:55.218Z,64.12
2022-12-04T12:15:21.467Z,63.96
2022-12-04T12:17:47.711Z,64.14
2022-12-04T12:20:13.962Z,63.70
2022-12-04T12:22:40.207Z,64.09
2022-12-04T12:25:06.468Z,63.86
2022-12-04T12:27:32.753Z,63.91
2022-12-04T12:29:59.268Z,63.76
2022-12-04T12:32:25.637Z,63.63
2022-12-04T12:34:51.902Z,63.63
2022-12-04T12:37:18.159Z,64.10
2022-12-04T12:39:44.420Z,64.04
2022-12-04T12:42:10.670Z,64.14
2022-12-04T12:44:36.914Z,63.78
2022-12-04T12:47:03.173Z,63.42
2022-12-04T12:49:29.435Z,63.44
2022-12-04T12:51:55.696Z,63.84
2022-12-04T12:54:21.976Z,63.12
2022-12-04T12:56:52.997Z,63.14
2022-12-04T12:59:19.249Z,63.27
2022-12-04T13:01:45.540Z,63.24
2022-12-04T13:04:11.809Z,62.83
2022-12-04T13:06:38.131Z,62.25
2022-12-04T13:09:04.461Z,61.81
2022-12-04T13:11:30.823Z,61.50
2022-12-04T13:13:57.091Z,61.56
2022-12-04T13:16:23.436Z,62.08
2022-12-04T13:18:49.812Z,62.26
2022-12-04T13:21:16.128Z,62.02
2022-12-04T13:23:42.420Z,61.97
2022-12-04T13:26:08.717Z,61.75
2022-12-04T13:28:34.975Z,61.80
2022-12-04T13:31:01.266Z,61.53
2022-12-04T13:33:27.593Z,62.04
2022-12-04T13:35:53.865Z,62.26
2022-12-04T13:38:20.169Z,62.49
2022-12-04T13:40:46.481Z,62.03
2022-12-04T13:43:12.755Z,61.79
2022-12-04T13:45:39.053Z,62.37
2022-12-04T13:48:05.405Z,62.27
2022-12-04T13:50:31.694Z,62.24
2022-12-04T13:52:57.994Z,61.43
2022-12-04T13:55:24.280Z,61.39
2022-12-04T13:57:50.580Z,61.31
2022-12-04T14:00:16.829Z,61.70
2022-12-04T14:02:43.118Z,61.52
2022-12-04T14:05:09.438Z,61.47
2022-12-04T14:07:35.771Z,61.84
2022-12-04T14:10:02.076Z,61.34
2022-12-04T14:12:28.337Z,60.80
2022-12-04T14:14:54.921Z,60.67
2022-12-04T14:17:21.413Z,60.81
2022-12-04T14:19:47.666Z,60.82
2022-12-04T14:22:13.926Z,60.78
2022-12-04T14:24:40.195Z,60.83
2022-12-04T14:27:13.620Z,60.40
2022-12-04T14:29:39.998Z,60.83
2022-12-04T14:32:06.243Z,61.01
2022-12-04T14:34:32.504Z,60.89
2022-12-04T14:36:58.760Z,61.52
2022-12-04T14:39:25.037Z,61.98
2022-12-04T14:41:51.290Z,61.63
2022-12-04T14:44:17.550Z,61.68
2022-12-04T14:46:43.884Z,61.66
2022-12-04T14:49:10.200Z,61.35
2022-12-04T14:51:36.464Z,61.99
2022-12-04T14:54:02.710Z,61.36
2022-12-04T14:56:28.957Z,61.43
2022-12-04T14:58:55.220Z,61.25
2022-12-04T15:01:26.917Z,60.71
2022-12-04T15:03:55.173Z,61.31
2022-12-04T15:06:21.414Z,61.29
2022-12-04T15:08:47.677Z,61.27
2022-12-04T15:11:13.922Z,61.92
2022-12-04T15:13:40.270Z,61.92
2022-12-04T15:16:06.664Z,62.41
2022-12-04T15:18:38.091Z,62.83
2022-12-04T15:21:05.725Z,62.28
2022-12-04T15:23:31.969Z,62.32
2022-12-04T15:25:58.213Z,62.83
2022-12-04T15:28:24.486Z,62.15
2022-12-04T15:30:50.813Z,61.55
2022-12-04T15:33:21.116Z,62.55
2022-12-04T15:35:48.145Z,62.40
2022-12-04T15:38:14.408Z,62.97
2022-12-04T15:40:40.659Z,62.64
2022-12-04T15:43:06.906Z,62.63
2022-12-04T15:45:33.146Z,62.78
2022-12-04T15:47:59.393Z,62.83
2022-12-04T15:50:25.648Z,63.70
2022-12-04T15:52:51.911Z,63.80
2022-12-04T15:55:18.188Z,64.00
2022-12-04T15:57:44.437Z,63.62
2022-12-04T16:00:10.683Z,63.82
2022-12-04T16:02:36.955Z,64.07
2022-12-04T16:05:03.235Z,63.99
2022-12-04T16:07:29.600Z,63.96
2022-12-04T16:10:02.647Z,63.88
2022-12-04T16:12:29.740Z,63.96
2022-12-04T16:14:56.185Z,63.89
2022-12-04T16:17:22.732Z,63.56
2022-12-04T16:19:48.973Z,63.93
2022-12-04T16:22:17.302Z,63.97
2022-12-04T16:24:45.650Z,63.58
2022-12-04T16:27:11.898Z,63.69
2022-12-04T16:29:38.176Z,63.38
2022-12-04T16:32:04.478Z,63.21
2022-12-04T16:34:30.790Z,63.33
2022-12-04T16:36:57.034Z,63.83
2022-12-04T16:39:23.279Z,63.71
2022-12-04T16:41:49.548Z,63.85
2022-12-04T16:44:15.795Z,63.78
2022-12-04T16:46:42.264Z,63.92
2022-12-04T16:49:08.609Z,64.05
2022-12-04T16:51:34.882Z,64.44
2022-12-04T16:54:01.145Z,64.07
2022-12-04T16:56:27.403Z,64.19
2022-12-04T16:58:53.645Z,64.30
2022-12-04T17:01:19.943Z,64.19
2022-12-04T17:03:46.292Z,64.14
2022-12-04T17:06:12.600Z,64.23
2022-12-04T17:08:38.863Z,63.95
2022-12-04T17:11:05.113Z,64.14
2022-12-04T17:13:31.378Z,64.35
2022-12-04T17:15:57.673Z,64.99
2022-12-04T17:18:23.952Z,63.77
2022-12-04T17:20:50.228Z,63.78
2022-12-04T17:23:16.489Z,64.05
2022-12-04T17:25:42.738Z,63.89
2022-12-04T17:28:08.991Z,64.39
2022-12-04T17:30:36.446Z,64.11
2022-12-04T17:33:02.882Z,64.64
2022-12-04T17:35:29.142Z,64.60
2022-12-04T17:37:58.300Z,64.62
2022-12-04T17:40:26.996Z,64.63
2022-12-04T17:42:53.261Z,64.33
2022-12-04T17:45:19.514Z,63.81
2022-12-04T17:47:45.773Z,63.86
2022-12-04T17:50:12.120Z,64.07
2022-12-04T17:52:38.364Z,64.23
2022-12-04T17:55:04.609Z,64.20
2022-12-04T17:57:30.855Z,64.03
2022-12-04T17:59:57.103Z,64.25
2022-12-04T18:02:23.396Z,64.36
2022-12-04T18:04:49.720Z,64.26
2022-12-04T18:07:16.000Z,64.45
2022-12-04T18:09:42.268Z,63.83
2022-12-04T18:12:08.524Z,64.54
2022-12-04T18:14:34.793Z,64.10
2022-12-04T18:17:01.074Z,63.59
2022-12-04T18:19:27.392Z,63.60
2022-12-04T18:21:53.637Z,64.53
2022-12-04T18:24:19.870Z,64.53
2022-12-04T18:26:46.144Z,64.78
2022-12-04T18:29:12.418Z,64.64
2022-12-04T18:31:38.729Z,64.65
2022-12-04T18:34:05.037Z,64.83
2022-12-04T18:36:31.278Z,64.78
2022-12-04T18:38:57.533Z,64.53
2022-12-04T18:41:23.779Z,64.77
2022-12-04T18:43:50.044Z,64.73
2022-12-04T18:46:16.328Z,64.56
2022-12-04T18:48:42.645Z,64.58
2022-12-04T18:51:08.919Z,64.79
2022-12-04T18:53:35.194Z,64.70
2022-12-04T18:56:01.438Z,64.54
2022-12-04T18:58:27.682Z,64.82
2022-12-04T19:00:53.980Z,64.47
2022-12-04T19:03:20.290Z,64.34
2022-12-04T19:05:46.562Z,63.74
2022-12-04T19:08:12.887Z,63.97
2022-12-04T19:10:39.243Z,63.87
2022-12-04T19:13:05.506Z,64.36
2022-12-04T19:15:31.772Z,64.93
2022-12-04T19:17:58.122Z,64.73
2022-12-04T19:20:24.407Z,64.08
2022-12-04T19:22:50.667Z,64.43
2022-12-04T19:25:16.927Z,64.73
2022-12-04T19:27:43.166Z,64.58
2022-12-04T19:30:09.431Z,64.06
2022-12-04T19:32:35.679Z,64.43
2022-12-04T19:35:01.954Z,64.72
2022-12-04T19:37:28.217Z,64.91
2022-12-04T19:39:54.761Z,65.01
2022-12-04T19:42:21.183Z,64.98
2022-12-04T19:44:49.222Z,65.29
2022-12-04T19:47:15.978Z,64.91
2022-12-04T19:49:42.244Z,65.28
2022-12-04T19:52:08.506Z,65.05
2022-12-04T19:54:34.762Z,65.10
2022-12-04T19:57:01.028Z,65.04
2022-12-04T19:59:30.536Z,65.06
2022-12-04T20:02:00.992Z,64.99
2022-12-04T20:04:27.296Z,65.00
2022-12-04T20:06:53.564Z,64.90
2022-12-04T20:09:19.810Z,64.77
2022-12-04T20:11:46.080Z,65.06
2022-12-04T20:14:12.322Z,65.28
2022-12-04T20:16:38.618Z,64.93
2022-12-04T20:19:04.955Z,64.35
2022-12-04T20:21:31.212Z,64.80
2022-12-04T20:23:57.461Z,64.85
2022-12-04T20:26:23.731Z,64.61
2022-12-04T20:28:49.980Z,64.69
2022-12-04T20:31:16.282Z,64.99
2022-12-04T20:33:42.577Z,65.02
2022-12-04T20:36:08.827Z,64.99
2022-12-04T20:38:35.079Z,64.78
2022-12-04T20:41:01.319Z,65.27
2022-12-04T20:43:27.569Z,65.51
2022-12-04T20:45:53.890Z,65.24
2022-12-04T20:48:20.153Z,65.35
2022-12-04T20:50:46.400Z,65.50
2022-12-04T20:53:12.696Z,65.54
2022-12-04T20:55:38.933Z,65.00
2022-12-04T20:58:05.197Z,64.97
2022-12-04T21:00:31.452Z,65.22
2022-12-04T21:02:57.812Z,65.16
2022-12-04T21:05:24.106Z,65.10
2022-12-04T21:07:50.410Z,64.93
2022-12-04T21:10:16.721Z,65.49
2022-12-04T21:12:43.373Z,66.02
2022-12-04T21:15:09.774Z,66.31
2022-12-04T21:17:36.018Z,66.18
2022-12-04T21:20:07.433Z,66.22
2022-12-04T21:22:34.222Z,66.15
2022-12-04T21:25:00.466Z,66.37
2022-12-04T21:27:26.725Z,66.16
2022-12-04T21:29:53.002Z,66.04
2022-12-04T21:32:19.274Z,66.16
2022-12-04T21:34:45.525Z,66.04
2022-12-04T21:37:11.785Z,66.62
2022-12-04T21:39:38.044Z,66.61
2022-12-04T21:42:04.291Z,66.68
2022-12-04T21:44:30.531Z,66.72
2022-12-04T21:46:56.826Z,65.76
2022-12-04T21:49:23.163Z,65.40
2022-12-04T21:51:58.389Z,64.76
2022-12-04T21:54:25.073Z,65.74
2022-12-04T21:56:51.321Z,65.15
2022-12-04T21:59:17.586Z,65.97
2022-12-04T22:01:43.920Z,66.58
2022-12-04T22:04:10.209Z,66.19
2022-12-04T22:06:36.451Z,65.94
2022-12-04T22:09:02.693Z,66.13
2022-12-04T22:11:28.966Z,66.56
2022-12-04T22:13:55.225Z,66.85
2022-12-04T22:16:22.363Z,66.89
2022-12-04T22:18:50.805Z,67.16
2022-12-04T22:21:17.056Z,66.77
2022-12-04T22:23:43.297Z,66.92
2022-12-04T22:26:09.548Z,66.91
2022-12-04T22:28:35.929Z,66.82
2022-12-04T22:31:02.234Z,67.00
2022-12-04T22:33:28.541Z,66.55
2022-12-04T22:35:54.814Z,66.67
2022-12-04T22:38:21.060Z,66.73
2022-12-04T22:40:47.317Z,66.65
2022-12-04T22:43:13.574Z,66.54
2022-12-04T22:45:39.840Z,66.86
2022-12-04T22:48:06.105Z,67.27
2022-12-04T22:50:32.349Z,67.25
2022-12-04T22:52:58.591Z,66.78
2022-12-04T22:55:24.857Z,66.82
2022-12-04T22:57:51.111Z,66.91
2022-12-04T23:00:17.371Z,66.91
2022-12-04T23:02:43.680Z,66.90
2022-12-04T23:05:10.039Z,67.02
2022-12-04T23:07:36.363Z,67.35
2022-12-04T23:10:02.644Z,67.41
2022-12-04T23:12:28.910Z,67.23
2022-12-04T23:14:55.150Z,66.85
2022-12-04T23:17:21.400Z,67.32
2022-12-04T23:19:47.681Z,66.91
2022-12-04T23:22:13.934Z,67.16
2022-12-04T23:24:40.170Z,67.17
2022-12-04T23:27:06.443Z,66.48
2022-12-04T23:32:18.953Z,66.47
2022-12-04T23:34:45.217Z,66.33
2022-12-04T23:37:11.470Z,67.13
2022-12-04T23:39:37.710Z,67.46
2022-12-04T23:42:03.949Z,67.28
2022-12-04T23:44:30.221Z,67.44
2022-12-04T23:46:56.500Z,67.86
2022-12-04T23:49:22.870Z,68.04
2022-12-04T23:51:49.113Z,67.99
2022-12-04T23:54:15.377Z,67.64
2022-12-04T23:56:41.661Z,68.02
2022-12-04T23:59:07.929Z,67.78
